Time;durP1;ratioP1;P1;durP2;ratioP2;P2;SDS_P1;SDS_P2;PMS_P1;PMS_P2;Temp;Humidity;BMP_temperature;BMP_pressure;BME280_temperature;BME280_humidity;BME280_pressure;Samples;Min_cycle;Max_cycle;Signal;HPM_P1;HPM_P2
2024/01/25 00:00:11;;;;;;;21.33;5.83;;;7.50;99.90;;;;;;5006910;28;20554;-63
2024/01/25 00:02:39;;;;;;;27.50;6.23;;;7.50;99.90;;;;;;5013150;28;20560;-67
2024/01/25 00:05:08;;;;;;;20.63;6.50;;;7.50;99.90;;;;;;5013807;28;20467;-63
2024/01/25 00:07:47;;;;;;;26.43;6.70;;;7.50;99.90;;;;;;5005945;28;20529;-64
2024/01/25 00:10:18;;;;;;;15.47;4.33;;;7.50;99.90;;;;;;5010882;28;20526;-65
2024/01/25 00:12:46;;;;;;;27.13;6.87;;;7.50;99.90;;;;;;5017441;28;20470;-64
2024/01/25 00:15:15;;;;;;;20.53;5.47;;;7.50;99.90;;;;;;5009686;28;20876;-65
2024/01/25 00:17:43;;;;;;;22.63;5.80;;;7.50;99.90;;;;;;5014445;28;20536;-64
2024/01/25 00:20:11;;;;;;;17.77;4.97;;;7.50;99.90;;;;;;5012940;28;20552;-65
2024/01/25 00:22:41;;;;;;;24.67;5.20;;;7.50;99.90;;;;;;5017212;28;20483;-64
2024/01/25 00:25:10;;;;;;;21.40;7.90;;;7.50;99.90;;;;;;5009818;28;20472;-64
2024/01/25 00:27:38;;;;;;;20.67;6.60;;;7.40;99.90;;;;;;5015526;28;20471;-64
2024/01/25 00:30:08;;;;;;;21.00;5.30;;;7.40;99.90;;;;;;5006023;28;20644;-64
2024/01/25 00:32:36;;;;;;;20.47;5.63;;;7.40;99.90;;;;;;5010944;28;21049;-64
2024/01/25 00:35:05;;;;;;;20.93;4.60;;;7.40;99.90;;;;;;5009969;28;20586;-65
2024/01/25 00:37:33;;;;;;;21.10;6.20;;;7.40;99.90;;;;;;5011777;28;20521;-64
2024/01/25 00:40:03;;;;;;;22.17;6.53;;;7.40;99.90;;;;;;5010663;28;20566;-64
2024/01/25 00:42:38;;;;;;;21.43;6.23;;;7.50;99.90;;;;;;5014205;28;20522;-64
2024/01/25 00:45:07;;;;;;;15.50;5.17;;;7.40;99.90;;;;;;5011328;28;20841;-64
2024/01/25 00:47:36;;;;;;;18.93;5.07;;;7.40;99.90;;;;;;5017740;28;20486;-64
2024/01/25 00:50:05;;;;;;;21.00;5.20;;;7.40;99.90;;;;;;5009952;28;20514;-65
2024/01/25 00:52:35;;;;;;;21.60;5.67;;;7.40;99.90;;;;;;5005504;28;20472;-64
2024/01/25 00:55:04;;;;;;;27.23;6.63;;;7.30;99.90;;;;;;5007554;28;21230;-65
2024/01/25 00:57:34;;;;;;;20.00;6.30;;;7.30;99.90;;;;;;5005223;28;20470;-64
2024/01/25 01:00:04;;;;;;;20.50;6.17;;;7.40;99.90;;;;;;5006078;28;20553;-64
2024/01/25 01:02:40;;;;;;;16.30;5.80;;;7.40;99.90;;;;;;5008551;28;20561;-64
2024/01/25 01:05:10;;;;;;;23.23;6.40;;;7.40;99.90;;;;;;5013339;28;20467;-64
2024/01/25 01:07:40;;;;;;;23.90;5.93;;;7.40;99.90;;;;;;5007473;28;20592;-64
2024/01/25 01:10:09;;;;;;;22.83;4.77;;;7.50;99.90;;;;;;5009699;28;21281;-64
2024/01/25 01:12:39;;;;;;;17.00;5.03;;;7.40;99.90;;;;;;5007997;28;20483;-64
2024/01/25 01:15:08;;;;;;;16.73;4.70;;;7.40;99.90;;;;;;5007000;28;20482;-64
2024/01/25 01:17:36;;;;;;;26.60;5.47;;;7.40;99.90;;;;;;5013423;28;20471;-64
2024/01/25 01:20:04;;;;;;;27.33;5.73;;;7.40;99.90;;;;;;5008985;28;20495;-64
2024/01/25 01:22:33;;;;;;;23.53;6.43;;;7.40;99.90;;;;;;5015582;28;20486;-64
2024/01/25 01:25:01;;;;;;;21.30;6.87;;;7.30;99.90;;;;;;5015702;28;20503;-64
2024/01/25 01:27:29;;;;;;;23.97;5.70;;;7.30;99.90;;;;;;5010704;28;20554;-64
2024/01/25 01:29:58;;;;;;;25.77;7.73;;;7.30;99.90;;;;;;5012262;28;20499;-65
2024/01/25 01:32:26;;;;;;;19.53;4.87;;;7.30;99.90;;;;;;5008518;28;20898;-64
2024/01/25 01:34:54;;;;;;;22.00;5.00;;;7.30;99.90;;;;;;5009986;28;21036;-64
2024/01/25 01:37:22;;;;;;;24.90;5.70;;;7.30;99.90;;;;;;5007912;28;20553;-64
2024/01/25 01:39:50;;;;;;;22.73;4.70;;;7.30;99.90;;;;;;5014086;28;20471;-64
2024/01/25 01:42:19;;;;;;;23.10;6.17;;;7.30;99.90;;;;;;4997482;28;20465;-64
2024/01/25 01:44:47;;;;;;;21.10;4.90;;;7.30;99.90;;;;;;4998645;28;20555;-63
2024/01/25 01:47:16;;;;;;;21.10;4.47;;;7.30;99.90;;;;;;4996134;28;20465;-64
2024/01/25 01:49:45;;;;;;;20.97;5.53;;;7.30;99.90;;;;;;4992081;28;20476;-63
2024/01/25 01:52:13;;;;;;;19.40;5.70;;;7.30;99.90;;;;;;5009901;28;20935;-64
2024/01/25 01:54:41;;;;;;;22.60;5.37;;;7.30;99.90;;;;;;5004682;28;20507;-64
2024/01/25 01:57:10;;;;;;;20.60;4.83;;;7.30;99.90;;;;;;5007804;28;20503;-63
2024/01/25 01:59:38;;;;;;;22.70;4.70;;;7.30;99.90;;;;;;5006103;28;20570;-65
2024/01/25 02:02:07;;;;;;;19.73;5.30;;;7.30;99.90;;;;;;5008345;28;21156;-64
2024/01/25 02:04:36;;;;;;;19.47;4.73;;;7.40;99.90;;;;;;5005502;28;20480;-64
2024/01/25 02:07:05;;;;;;;22.57;4.20;;;7.40;99.90;;;;;;5015252;28;20663;-65
2024/01/25 02:09:36;;;;;;;17.70;4.77;;;7.40;99.90;;;;;;5008384;28;20483;-64
2024/01/25 02:12:06;;;;;;;22.37;5.60;;;7.40;99.90;;;;;;5001309;28;20487;-64
2024/01/25 02:14:34;;;;;;;25.87;5.60;;;7.40;99.90;;;;;;5004170;28;21047;-63
2024/01/25 02:17:02;;;;;;;17.43;5.10;;;7.40;99.90;;;;;;5011017;28;20584;-64
2024/01/25 02:19:31;;;;;;;16.13;4.40;;;7.50;99.90;;;;;;5003824;28;21397;-64
2024/01/25 02:22:00;;;;;;;20.00;4.13;;;7.40;99.90;;;;;;5009582;28;20507;-64
2024/01/25 02:24:30;;;;;;;21.43;6.97;;;7.50;99.90;;;;;;5010821;28;20483;-64
2024/01/25 02:26:58;;;;;;;23.97;4.97;;;7.40;99.90;;;;;;5010096;28;20502;-64
2024/01/25 02:29:26;;;;;;;18.03;6.40;;;7.40;99.90;;;;;;5015850;28;20772;-64
2024/01/25 02:31:54;;;;;;;18.90;5.23;;;7.40;99.90;;;;;;5001632;28;20614;-65
2024/01/25 02:34:22;;;;;;;17.67;4.67;;;7.40;99.90;;;;;;5006327;28;20475;-64
2024/01/25 02:36:50;;;;;;;18.27;4.73;;;7.40;99.90;;;;;;5014802;28;20622;-63
2024/01/25 02:39:18;;;;;;;16.63;4.30;;;7.50;99.90;;;;;;5011790;28;22862;-64
2024/01/25 02:41:48;;;;;;;19.57;5.33;;;7.50;99.90;;;;;;5012421;28;20590;-64
2024/01/25 02:44:16;;;;;;;18.23;5.00;;;7.40;99.90;;;;;;5017284;28;20846;-64
2024/01/25 02:46:46;;;;;;;18.80;4.87;;;7.40;99.90;;;;;;5020270;28;20467;-64
2024/01/25 02:49:14;;;;;;;18.47;4.77;;;7.40;99.90;;;;;;5006364;28;20851;-64
2024/01/25 02:51:42;;;;;;;14.87;4.90;;;7.50;99.90;;;;;;5008163;28;20494;-65
2024/01/25 02:54:10;;;;;;;17.20;5.60;;;7.50;99.90;;;;;;5010266;28;20539;-64
2024/01/25 02:56:38;;;;;;;18.47;5.50;;;7.50;99.90;;;;;;5006381;28;21007;-64
2024/01/25 02:59:08;;;;;;;11.67;4.00;;;7.50;99.90;;;;;;5012104;28;20968;-64
2024/01/25 03:01:40;;;;;;;19.70;4.40;;;7.50;99.90;;;;;;5007326;28;20914;-64
2024/01/25 03:04:09;;;;;;;20.53;5.13;;;7.50;99.90;;;;;;5011348;28;20503;-64
2024/01/25 03:06:37;;;;;;;17.67;4.77;;;7.50;99.90;;;;;;5017043;28;20464;-64
2024/01/25 03:09:05;;;;;;;16.87;4.60;;;7.50;99.90;;;;;;5016874;28;20917;-64
2024/01/25 03:11:33;;;;;;;20.07;5.00;;;7.60;99.90;;;;;;5003294;28;20867;-64
2024/01/25 03:14:01;;;;;;;18.03;5.17;;;7.50;99.90;;;;;;5011463;28;20479;-64
2024/01/25 03:16:31;;;;;;;19.80;4.73;;;7.50;99.90;;;;;;5016335;28;21063;-64
2024/01/25 03:18:59;;;;;;;16.70;5.07;;;7.50;99.90;;;;;;5013876;28;20591;-64
2024/01/25 03:21:29;;;;;;;20.03;5.40;;;7.50;99.90;;;;;;5016722;28;20585;-64
2024/01/25 03:23:57;;;;;;;18.63;4.70;;;7.50;99.90;;;;;;5008334;28;20468;-64
2024/01/25 03:26:27;;;;;;;17.33;4.50;;;7.50;99.90;;;;;;5015439;28;20554;-64
2024/01/25 03:28:55;;;;;;;20.70;5.03;;;7.60;99.90;;;;;;5006207;28;20541;-64
2024/01/25 03:31:23;;;;;;;14.37;4.90;;;7.60;99.90;;;;;;5012620;28;22991;-64
2024/01/25 03:33:53;;;;;;;20.70;5.53;;;7.50;99.90;;;;;;5012363;28;20464;-64
2024/01/25 03:36:21;;;;;;;18.20;4.70;;;7.50;99.90;;;;;;5011042;28;20562;-64
2024/01/25 03:38:49;;;;;;;19.33;5.10;;;7.50;99.90;;;;;;5013428;28;20472;-64
2024/01/25 03:41:17;;;;;;;15.00;5.60;;;7.50;99.90;;;;;;5015494;28;20515;-64
2024/01/25 03:43:45;;;;;;;20.27;5.60;;;7.50;99.90;;;;;;5013420;28;20491;-64
2024/01/25 03:46:14;;;;;;;20.57;5.00;;;7.50;99.90;;;;;;5012532;28;20502;-64
2024/01/25 03:48:42;;;;;;;14.90;4.43;;;7.50;99.90;;;;;;5017430;28;20474;-64
2024/01/25 03:51:12;;;;;;;18.80;4.93;;;7.50;99.90;;;;;;5014910;28;20500;-64
2024/01/25 03:53:42;;;;;;;19.23;5.03;;;7.40;99.90;;;;;;5019526;28;20471;-64
2024/01/25 03:56:12;;;;;;;18.93;5.40;;;7.50;99.90;;;;;;5012411;28;20551;-64
2024/01/25 03:58:40;;;;;;;18.53;4.50;;;7.50;99.90;;;;;;5015088;28;20542;-64
2024/01/25 04:01:09;;;;;;;22.20;5.27;;;7.50;99.90;;;;;;5020890;28;20482;-64
2024/01/25 04:03:37;;;;;;;20.33;4.67;;;7.50;99.90;;;;;;5023532;28;20475;-64
2024/01/25 04:06:06;;;;;;;24.80;6.40;;;7.50;99.90;;;;;;5022515;28;20482;-64
2024/01/25 04:08:35;;;;;;;20.83;4.70;;;7.40;99.90;;;;;;5019955;28;20459;-64
2024/01/25 04:11:04;;;;;;;15.40;4.93;;;7.40;99.90;;;;;;5020874;28;20537;-63
2024/01/25 04:13:32;;;;;;;15.87;4.63;;;7.50;99.90;;;;;;5019652;28;20556;-63
2024/01/25 04:16:00;;;;;;;24.57;4.53;;;7.50;99.90;;;;;;5013879;28;20483;-64
2024/01/25 04:18:28;;;;;;;13.40;4.70;;;7.50;99.90;;;;;;5010171;28;20521;-64
2024/01/25 04:20:56;;;;;;;17.10;3.73;;;7.50;99.90;;;;;;5014227;28;20522;-64
2024/01/25 04:23:24;;;;;;;23.40;4.80;;;7.50;99.90;;;;;;5011585;28;20594;-65
2024/01/25 04:25:55;;;;;;;18.47;4.50;;;7.50;99.90;;;;;;5014314;28;20471;-64
2024/01/25 04:28:23;;;;;;;17.37;4.70;;;7.50;99.90;;;;;;5013626;28;20468;-63
2024/01/25 04:30:51;;;;;;;16.73;4.67;;;7.50;99.90;;;;;;5014723;28;20528;-64
2024/01/25 04:33:20;;;;;;;16.00;4.30;;;7.50;99.90;;;;;;5017697;28;20463;-64
2024/01/25 04:35:48;;;;;;;27.33;5.60;;;7.50;99.90;;;;;;5010923;28;20510;-64
2024/01/25 04:38:16;;;;;;;16.60;4.40;;;7.50;99.90;;;;;;5007863;28;21339;-65
2024/01/25 04:40:44;;;;;;;17.37;4.00;;;7.50;99.90;;;;;;5011972;28;20487;-64
2024/01/25 04:43:14;;;;;;;13.30;4.53;;;7.50;99.90;;;;;;5011421;28;21055;-64
2024/01/25 04:45:42;;;;;;;19.33;4.80;;;7.50;99.90;;;;;;5018323;28;20896;-64
2024/01/25 04:48:10;;;;;;;16.17;4.50;;;7.40;99.90;;;;;;5009561;28;20546;-64
2024/01/25 04:50:39;;;;;;;19.87;4.87;;;7.50;99.90;;;;;;5012778;28;20904;-64
2024/01/25 04:53:07;;;;;;;18.53;3.93;;;7.40;99.90;;;;;;4990248;28;20813;-63
2024/01/25 04:55:35;;;;;;;20.27;5.10;;;7.50;99.90;;;;;;4991606;28;20770;-66
2024/01/25 04:58:03;;;;;;;17.77;4.77;;;7.50;99.90;;;;;;4996590;28;20492;-62
2024/01/25 05:00:33;;;;;;;18.63;4.70;;;7.50;99.90;;;;;;4990811;28;20491;-63
2024/01/25 05:03:01;;;;;;;23.37;4.70;;;7.50;99.90;;;;;;5000915;28;20463;-63
2024/01/25 05:05:29;;;;;;;14.93;4.87;;;7.40;99.90;;;;;;4995331;28;20969;-63
2024/01/25 05:07:57;;;;;;;20.47;5.10;;;7.40;99.90;;;;;;4990747;28;20472;-63
2024/01/25 05:10:26;;;;;;;20.23;6.00;;;7.40;99.90;;;;;;4988584;28;20527;-64
2024/01/25 05:12:54;;;;;;;20.43;4.50;;;7.40;99.90;;;;;;5000984;28;20478;-64
2024/01/25 05:15:22;;;;;;;14.30;5.40;;;7.40;99.90;;;;;;4995706;28;20500;-63
2024/01/25 05:17:52;;;;;;;20.20;4.07;;;7.30;99.90;;;;;;4997574;28;20579;-63
2024/01/25 05:20:20;;;;;;;22.43;4.47;;;7.40;99.90;;;;;;4998121;28;20484;-64
2024/01/25 05:22:48;;;;;;;15.33;4.00;;;7.40;99.90;;;;;;4991450;28;20481;-64
2024/01/25 05:25:16;;;;;;;18.23;4.77;;;7.30;99.90;;;;;;4994041;28;20929;-64
2024/01/25 05:27:44;;;;;;;15.73;4.67;;;7.20;99.90;;;;;;4993308;28;20872;-63
2024/01/25 05:30:13;;;;;;;18.70;4.30;;;7.20;99.90;;;;;;4986286;28;20488;-64
2024/01/25 05:32:41;;;;;;;14.27;4.80;;;7.20;99.90;;;;;;4983862;28;20476;-62
2024/01/25 05:35:11;;;;;;;21.90;5.73;;;7.20;99.90;;;;;;4982488;28;20512;-63
2024/01/25 05:37:39;;;;;;;23.43;4.40;;;7.20;99.90;;;;;;4991694;28;20547;-63
2024/01/25 05:40:09;;;;;;;18.17;4.80;;;7.20;99.90;;;;;;4987714;28;20493;-64
2024/01/25 05:42:37;;;;;;;18.50;5.93;;;7.20;99.90;;;;;;5012531;28;20476;-64
2024/01/25 05:45:05;;;;;;;24.73;4.30;;;7.20;99.90;;;;;;5014739;28;21123;-64
2024/01/25 05:47:34;;;;;;;19.97;5.60;;;7.20;99.90;;;;;;5012090;28;21802;-63
2024/01/25 05:50:03;;;;;;;17.53;4.60;;;7.20;99.90;;;;;;5003744;28;20965;-64
2024/01/25 05:52:33;;;;;;;21.07;4.40;;;7.20;99.90;;;;;;5008653;28;20585;-64
2024/01/25 05:55:01;;;;;;;20.03;4.40;;;7.20;99.90;;;;;;5003509;28;20474;-64
2024/01/25 05:57:32;;;;;;;26.73;5.13;;;7.10;99.90;;;;;;5009221;28;20471;-64
2024/01/25 06:00:00;;;;;;;19.40;5.43;;;7.10;99.90;;;;;;5009935;28;21105;-64
2024/01/25 06:02:28;;;;;;;18.83;6.17;;;7.10;99.90;;;;;;4982740;28;20551;-64
2024/01/25 06:04:58;;;;;;;15.53;3.90;;;7.10;99.90;;;;;;4989222;28;20555;-64
2024/01/25 06:07:26;;;;;;;24.80;5.00;;;7.10;99.90;;;;;;4989656;28;20483;-63
2024/01/25 06:09:56;;;;;;;23.90;4.80;;;7.00;99.90;;;;;;4982078;28;21066;-63
2024/01/25 06:12:24;;;;;;;23.17;4.50;;;7.00;99.90;;;;;;4987883;28;22296;-63
2024/01/25 06:14:52;;;;;;;17.67;4.20;;;7.10;99.90;;;;;;4988339;28;20480;-64
2024/01/25 06:17:20;;;;;;;12.77;4.43;;;7.10;99.90;;;;;;4981712;28;20578;-64
2024/01/25 06:19:48;;;;;;;14.30;4.70;;;7.10;99.90;;;;;;4989677;28;20500;-62
2024/01/25 06:22:17;;;;;;;21.83;4.20;;;7.10;99.90;;;;;;4985652;28;20484;-64
2024/01/25 06:24:46;;;;;;;27.33;5.33;;;7.10;99.90;;;;;;4988558;28;20471;-63
2024/01/25 06:27:15;;;;;;;22.33;5.23;;;7.10;99.90;;;;;;4993769;28;20985;-62
2024/01/25 06:29:43;;;;;;;18.67;4.90;;;7.10;99.90;;;;;;4987829;28;20540;-63
2024/01/25 06:32:12;;;;;;;17.50;4.47;;;7.10;99.90;;;;;;4985279;28;21020;-63
2024/01/25 06:34:49;;;;;;;17.67;5.30;;;7.10;99.90;;;;;;4988335;28;20829;-64
2024/01/25 06:37:18;;;;;;;18.10;4.80;;;7.10;99.90;;;;;;4985772;28;21087;-64
2024/01/25 06:39:47;;;;;;;18.07;5.13;;;7.10;99.90;;;;;;4991410;28;20495;-63
2024/01/25 06:42:17;;;;;;;21.53;4.93;;;7.10;99.90;;;;;;5007120;28;20567;-64
2024/01/25 06:44:45;;;;;;;16.87;4.40;;;7.10;99.90;;;;;;5013078;28;20459;-64
2024/01/25 06:47:13;;;;;;;15.53;4.40;;;7.10;99.90;;;;;;5009058;28;20515;-63
2024/01/25 06:49:41;;;;;;;17.77;4.37;;;7.10;99.90;;;;;;5006537;28;21085;-65
2024/01/25 06:52:09;;;;;;;19.97;4.17;;;7.10;99.90;;;;;;5011791;28;20480;-64
2024/01/25 06:54:38;;;;;;;18.20;4.23;;;7.10;99.90;;;;;;5008851;28;21000;-64
2024/01/25 06:57:06;;;;;;;19.43;5.20;;;7.20;99.90;;;;;;5009701;28;20506;-63
2024/01/25 06:59:35;;;;;;;17.50;4.30;;;7.10;99.90;;;;;;5003150;28;21014;-64
2024/01/25 07:02:04;;;;;;;16.23;4.70;;;7.10;99.90;;;;;;5010446;28;20510;-64
2024/01/25 07:04:33;;;;;;;12.40;4.00;;;7.10;99.90;;;;;;5012513;28;20475;-64
2024/01/25 07:07:02;;;;;;;17.40;4.93;;;7.10;99.90;;;;;;5014712;28;20535;-64
2024/01/25 07:09:32;;;;;;;19.90;4.23;;;7.10;99.90;;;;;;5010796;28;20482;-64
2024/01/25 07:12:00;;;;;;;16.60;3.90;;;7.10;99.90;;;;;;5007362;28;20494;-63
2024/01/25 07:14:28;;;;;;;14.20;4.53;;;7.10;99.90;;;;;;5012294;28;20468;-63
2024/01/25 07:16:57;;;;;;;23.10;5.47;;;7.10;99.90;;;;;;5013019;28;20471;-64
2024/01/25 07:19:25;;;;;;;24.80;4.90;;;7.10;99.90;;;;;;5010637;28;20507;-63
2024/01/25 07:21:54;;;;;;;17.10;4.27;;;7.10;99.90;;;;;;4995069;28;20485;-64
2024/01/25 07:24:22;;;;;;;18.93;4.53;;;7.10;99.90;;;;;;4992391;28;20477;-64
2024/01/25 07:26:50;;;;;;;25.50;5.97;;;7.20;99.90;;;;;;4991776;28;20469;-64
2024/01/25 07:29:18;;;;;;;18.30;4.77;;;7.20;99.90;;;;;;4987754;28;21049;-64
2024/01/25 07:31:46;;;;;;;15.33;4.07;;;7.10;99.90;;;;;;4988330;28;20866;-64
2024/01/25 07:34:15;;;;;;;22.20;5.20;;;7.10;99.90;;;;;;4991696;28;20567;-64
2024/01/25 07:36:44;;;;;;;29.00;7.17;;;7.10;99.90;;;;;;4989197;28;20469;-64
2024/01/25 07:39:12;;;;;;;20.10;4.57;;;7.10;99.90;;;;;;4991766;28;20500;-64
2024/01/25 07:41:40;;;;;;;19.43;4.50;;;7.10;99.90;;;;;;4989654;28;20496;-63
2024/01/25 07:44:08;;;;;;;20.60;4.17;;;7.10;99.90;;;;;;4992415;28;20467;-64
2024/01/25 07:46:38;;;;;;;23.40;5.13;;;7.10;99.90;;;;;;4986373;28;20866;-63
2024/01/25 07:49:06;;;;;;;25.53;5.53;;;7.10;99.90;;;;;;4994634;28;20475;-64
2024/01/25 07:51:36;;;;;;;20.47;4.53;;;7.10;99.90;;;;;;4985572;28;20520;-64
2024/01/25 07:54:04;;;;;;;22.23;4.73;;;7.00;99.90;;;;;;4991483;28;20480;-64
2024/01/25 07:56:32;;;;;;;18.17;4.70;;;7.10;99.90;;;;;;4993382;28;20563;-64
2024/01/25 07:59:01;;;;;;;22.33;4.97;;;7.10;99.90;;;;;;4994069;28;20537;-64
2024/01/25 08:01:29;;;;;;;26.93;4.67;;;7.10;99.90;;;;;;4991203;28;20489;-65
2024/01/25 08:03:58;;;;;;;17.50;4.50;;;7.10;99.90;;;;;;4998380;28;20477;-63
2024/01/25 08:06:26;;;;;;;18.50;4.90;;;7.10;99.90;;;;;;4988297;28;20480;-63
2024/01/25 08:08:55;;;;;;;19.67;4.23;;;7.10;99.90;;;;;;4988505;28;20738;-63
2024/01/25 08:11:23;;;;;;;15.13;4.47;;;7.10;99.90;;;;;;4989240;28;20488;-63
2024/01/25 08:13:51;;;;;;;17.73;5.20;;;7.10;99.90;;;;;;4989233;28;20580;-63
2024/01/25 08:16:20;;;;;;;20.07;5.00;;;7.20;99.90;;;;;;4990756;28;20548;-63
2024/01/25 08:18:49;;;;;;;23.20;5.27;;;7.20;99.90;;;;;;4989971;28;20477;-63
2024/01/25 08:21:17;;;;;;;16.27;4.30;;;7.20;99.90;;;;;;4994251;28;20695;-63
2024/01/25 08:23:46;;;;;;;24.00;5.10;;;7.20;99.90;;;;;;4992650;28;20472;-63
2024/01/25 08:26:15;;;;;;;21.23;5.30;;;7.20;99.90;;;;;;4994930;28;20555;-63
2024/01/25 08:28:44;;;;;;;22.77;4.50;;;7.20;99.90;;;;;;4989820;28;21262;-63
2024/01/25 08:31:12;;;;;;;15.47;4.37;;;7.20;99.90;;;;;;4989262;28;20488;-63
2024/01/25 08:33:43;;;;;;;18.23;4.73;;;7.10;99.90;;;;;;4989605;28;20865;-63
2024/01/25 08:36:13;;;;;;;17.27;4.73;;;7.10;99.90;;;;;;4996232;28;21572;-63
2024/01/25 08:38:41;;;;;;;12.27;4.03;;;7.20;99.90;;;;;;4994939;28;20480;-63
2024/01/25 08:41:11;;;;;;;21.57;5.37;;;7.20;99.90;;;;;;4998960;28;21050;-62
2024/01/25 08:43:40;;;;;;;18.77;4.40;;;7.20;99.90;;;;;;5007621;28;20520;-63
2024/01/25 08:46:08;;;;;;;16.77;4.00;;;7.10;99.90;;;;;;5013030;28;20876;-63
2024/01/25 08:48:36;;;;;;;16.27;4.70;;;7.20;99.90;;;;;;5014850;28;21086;-63
2024/01/25 08:51:05;;;;;;;12.53;3.90;;;7.20;99.90;;;;;;5006496;28;20578;-65
2024/01/25 08:53:33;;;;;;;19.60;5.00;;;7.30;99.90;;;;;;5009386;28;20506;-65
2024/01/25 08:56:01;;;;;;;18.23;5.17;;;7.30;99.90;;;;;;5014473;28;20467;-63
2024/01/25 08:58:33;;;;;;;14.37;4.17;;;7.30;99.90;;;;;;5015516;28;21112;-64
2024/01/25 09:01:02;;;;;;;19.93;4.40;;;7.30;99.90;;;;;;5012340;28;20574;-63
2024/01/25 09:03:31;;;;;;;17.93;5.20;;;7.30;99.90;;;;;;5015294;28;20546;-63
2024/01/25 09:06:05;;;;;;;16.83;5.60;;;7.30;99.90;;;;;;5012010;28;20526;-63
2024/01/25 09:08:33;;;;;;;16.80;4.87;;;7.30;99.90;;;;;;5013062;28;20468;-63
2024/01/25 09:11:02;;;;;;;22.03;5.30;;;7.30;99.90;;;;;;5013295;28;20573;-63
2024/01/25 09:13:32;;;;;;;19.37;4.13;;;7.40;99.90;;;;;;5018870;28;20552;-63
2024/01/25 09:16:01;;;;;;;16.83;4.80;;;7.40;99.90;;;;;;5014347;28;20965;-63
2024/01/25 09:18:29;;;;;;;16.37;4.10;;;7.40;99.90;;;;;;5013990;28;20464;-63
2024/01/25 09:20:58;;;;;;;17.83;4.13;;;7.40;99.90;;;;;;5015101;28;20499;-62
2024/01/25 09:23:26;;;;;;;17.47;4.67;;;7.40;99.90;;;;;;5017024;28;20464;-63
2024/01/25 09:25:54;;;;;;;17.87;5.10;;;7.40;99.90;;;;;;5011298;28;20633;-63
2024/01/25 09:28:22;;;;;;;19.87;4.80;;;7.40;99.90;;;;;;5016762;28;21546;-62
2024/01/25 09:30:50;;;;;;;20.43;4.30;;;7.40;99.90;;;;;;5011474;28;20619;-63
2024/01/25 09:33:21;;;;;;;20.57;5.30;;;7.40;99.90;;;;;;5009088;28;20467;-63
2024/01/25 09:35:49;;;;;;;22.10;5.70;;;7.40;99.90;;;;;;5013876;28;20474;-63
2024/01/25 09:38:18;;;;;;;20.27;4.37;;;7.40;99.90;;;;;;5007774;28;20471;-63
2024/01/25 09:40:48;;;;;;;19.50;5.30;;;7.40;99.90;;;;;;5009019;28;20495;-63
2024/01/25 09:43:17;;;;;;;20.77;5.50;;;7.30;99.90;;;;;;5020258;28;20479;-63
2024/01/25 09:45:46;;;;;;;14.33;4.33;;;7.30;99.90;;;;;;5022994;28;20467;-64
2024/01/25 09:48:14;;;;;;;15.23;4.43;;;7.40;99.90;;;;;;5019520;28;20480;-64
2024/01/25 09:50:47;;;;;;;17.60;4.33;;;7.40;99.90;;;;;;5002895;28;20492;-64
2024/01/25 09:53:23;;;;;;;16.97;4.43;;;7.40;99.90;;;;;;4989336;28;20479;-64
2024/01/25 09:55:58;;;;;;;15.17;4.40;;;7.40;99.90;;;;;;4989719;28;20575;-64
2024/01/25 09:58:29;;;;;;;22.07;4.40;;;7.40;99.90;;;;;;4989130;28;20472;-64
2024/01/25 10:00:57;;;;;;;17.80;5.10;;;7.40;99.90;;;;;;4983087;28;21683;-62
2024/01/25 10:03:25;;;;;;;25.53;4.70;;;7.40;99.90;;;;;;4997296;28;20893;-62
2024/01/25 10:06:04;;;;;;;19.67;4.03;;;7.40;99.90;;;;;;4992727;28;20472;-61
2024/01/25 10:08:33;;;;;;;14.80;3.80;;;7.40;99.90;;;;;;4994849;28;20541;-64
2024/01/25 10:11:01;;;;;;;16.30;4.40;;;7.50;99.90;;;;;;4994254;28;20490;-64
2024/01/25 10:13:29;;;;;;;16.13;4.20;;;7.50;99.90;;;;;;4993719;28;20468;-63
2024/01/25 10:15:57;;;;;;;24.33;5.10;;;7.50;99.90;;;;;;4989705;28;20487;-62
2024/01/25 10:18:27;;;;;;;18.47;4.83;;;7.50;99.90;;;;;;4991875;28;20480;-64
2024/01/25 10:21:00;;;;;;;16.87;4.10;;;7.60;99.90;;;;;;4991497;28;20566;-62
2024/01/25 10:23:31;;;;;;;13.43;3.80;;;7.60;99.90;;;;;;4996691;28;20469;-63
2024/01/25 10:25:59;;;;;;;20.90;4.77;;;7.60;99.90;;;;;;4995598;28;20981;-62
2024/01/25 10:28:30;;;;;;;19.77;4.83;;;7.60;99.90;;;;;;4987461;28;20480;-64
2024/01/25 10:31:02;;;;;;;17.30;4.40;;;7.60;99.90;;;;;;4992158;28;20492;-64
2024/01/25 10:33:30;;;;;;;17.57;4.40;;;7.60;99.90;;;;;;4989447;28;20479;-64
2024/01/25 10:36:01;;;;;;;22.83;7.90;;;7.60;99.90;;;;;;4989864;28;20775;-62
2024/01/25 10:38:34;;;;;;;18.70;4.43;;;7.60;99.90;;;;;;4995605;28;21275;-62
2024/01/25 10:41:05;;;;;;;21.57;5.57;;;7.50;99.90;;;;;;4991804;28;20496;-63
2024/01/25 10:43:34;;;;;;;22.20;5.23;;;7.50;99.90;;;;;;4991420;28;20472;-63
2024/01/25 10:46:03;;;;;;;15.97;4.80;;;7.50;99.90;;;;;;4988468;28;20476;-62
2024/01/25 10:48:32;;;;;;;18.20;4.50;;;7.50;99.90;;;;;;4987741;28;20568;-64
2024/01/25 10:51:03;;;;;;;12.60;4.37;;;7.50;99.90;;;;;;4992865;28;21016;-64
2024/01/25 10:53:34;;;;;;;13.63;3.83;;;7.60;99.90;;;;;;4993519;28;20526;-63
2024/01/25 10:56:04;;;;;;;16.83;4.17;;;7.60;99.90;;;;;;4989824;28;20479;-65
2024/01/25 10:58:33;;;;;;;16.70;4.47;;;7.60;99.90;;;;;;4990754;28;20476;-64
2024/01/25 11:01:10;;;;;;;18.43;4.00;;;7.60;99.90;;;;;;4987417;28;21479;-64
2024/01/25 11:03:44;;;;;;;16.90;4.43;;;7.70;99.90;;;;;;4991326;28;21513;-62
2024/01/25 11:06:12;;;;;;;18.93;4.73;;;7.60;99.90;;;;;;4992108;28;20480;-64
2024/01/25 11:08:43;;;;;;;11.07;3.53;;;7.70;99.90;;;;;;4991609;28;20477;-62
2024/01/25 11:11:13;;;;;;;17.40;4.50;;;7.70;99.90;;;;;;4992447;28;20566;-64
2024/01/25 11:13:42;;;;;;;16.10;3.50;;;7.70;99.90;;;;;;4992873;28;20483;-64
2024/01/25 11:16:15;;;;;;;15.80;4.27;;;7.80;99.90;;;;;;4992431;28;20472;-64
2024/01/25 11:18:50;;;;;;;12.67;4.43;;;7.80;99.90;;;;;;4986932;28;20479;-64
2024/01/25 11:21:29;;;;;;;19.20;4.87;;;7.80;99.90;;;;;;4989315;28;22007;-62
2024/01/25 11:24:03;;;;;;;18.20;4.10;;;7.70;99.90;;;;;;4989427;28;20479;-64
2024/01/25 11:26:33;;;;;;;15.03;3.13;;;7.70;99.90;;;;;;4992716;28;20511;-64
2024/01/25 11:29:02;;;;;;;19.70;4.57;;;7.70;99.90;;;;;;4991959;28;20696;-62
2024/01/25 11:31:30;;;;;;;12.50;3.80;;;7.70;99.90;;;;;;4988099;28;20488;-64
2024/01/25 11:33:59;;;;;;;14.10;3.53;;;7.70;99.90;;;;;;4990099;28;21018;-64
2024/01/25 11:36:28;;;;;;;14.77;3.80;;;7.80;99.90;;;;;;4990316;28;20473;-62
2024/01/25 11:38:57;;;;;;;14.03;4.33;;;7.80;99.90;;;;;;4986556;28;20646;-64
2024/01/25 11:41:27;;;;;;;13.90;4.70;;;7.70;99.90;;;;;;4988896;28;20500;-62
2024/01/25 11:43:55;;;;;;;14.67;3.90;;;7.70;99.90;;;;;;4996875;28;20554;-64
2024/01/25 11:46:23;;;;;;;16.90;4.03;;;7.80;99.90;;;;;;4998327;28;20583;-64
2024/01/25 11:48:51;;;;;;;22.43;5.40;;;7.80;99.90;;;;;;4993969;28;20474;-64
2024/01/25 11:51:19;;;;;;;20.20;5.77;;;7.90;99.90;;;;;;4990429;28;20492;-64
2024/01/25 11:53:47;;;;;;;19.23;3.97;;;7.80;99.90;;;;;;4987779;28;20985;-64
2024/01/25 11:56:18;;;;;;;22.57;5.77;;;7.90;99.90;;;;;;4993774;28;20480;-64
2024/01/25 11:58:48;;;;;;;12.93;4.00;;;7.80;99.90;;;;;;4994617;28;21029;-62
2024/01/25 12:01:17;;;;;;;20.83;5.33;;;7.80;99.90;;;;;;4990762;28;20490;-64
2024/01/25 12:03:45;;;;;;;19.13;4.03;;;7.80;99.90;;;;;;4993119;28;20586;-62
2024/01/25 12:06:13;;;;;;;18.80;3.80;;;7.80;99.90;;;;;;4990980;28;20567;-63
2024/01/25 12:08:42;;;;;;;17.10;4.13;;;7.80;99.90;;;;;;4985443;28;20523;-63
2024/01/25 12:11:11;;;;;;;11.90;4.17;;;7.80;99.90;;;;;;4991601;28;20858;-63
2024/01/25 12:13:41;;;;;;;16.67;4.90;;;7.80;99.90;;;;;;4992385;28;20468;-63
2024/01/25 12:16:11;;;;;;;18.57;4.40;;;7.80;99.90;;;;;;4986851;28;20969;-63
2024/01/25 12:18:44;;;;;;;10.47;3.70;;;7.90;99.90;;;;;;4986659;28;20602;-63
2024/01/25 12:21:14;;;;;;;21.23;5.53;;;7.90;99.90;;;;;;4983848;28;21320;-64
2024/01/25 12:23:43;;;;;;;18.53;4.37;;;7.80;99.90;;;;;;4993576;28;20471;-65
2024/01/25 12:26:12;;;;;;;11.33;4.10;;;7.80;99.90;;;;;;4987179;28;21044;-65
2024/01/25 12:28:41;;;;;;;17.23;4.70;;;7.80;99.90;;;;;;4986831;28;20472;-64
2024/01/25 12:31:12;;;;;;;13.03;4.30;;;7.80;99.90;;;;;;4987145;28;20880;-64
2024/01/25 12:33:43;;;;;;;11.60;3.97;;;7.70;99.90;;;;;;4988768;28;20568;-64
2024/01/25 12:36:11;;;;;;;15.70;4.47;;;7.70;99.90;;;;;;4990060;28;20534;-66
2024/01/25 12:38:39;;;;;;;20.90;3.90;;;7.70;99.90;;;;;;4987076;28;20468;-64
2024/01/25 12:41:08;;;;;;;15.67;4.33;;;7.70;99.90;;;;;;4987956;28;20587;-64
2024/01/25 12:43:36;;;;;;;13.00;3.60;;;7.80;99.90;;;;;;4984993;28;20499;-64
2024/01/25 12:46:04;;;;;;;17.30;4.90;;;7.80;99.90;;;;;;4989253;28;20464;-64
2024/01/25 12:48:54;;;;;;;18.97;4.50;;;7.80;99.90;;;;;;4988910;28;20478;-66
2024/01/25 12:51:23;;;;;;;15.27;4.10;;;7.80;99.90;;;;;;4987681;28;20803;-66
2024/01/25 12:53:51;;;;;;;12.13;3.57;;;7.80;99.90;;;;;;4990912;28;20867;-64
2024/01/25 12:56:19;;;;;;;21.43;4.40;;;7.80;99.90;;;;;;4984920;28;20566;-65